Pagrindinis puslapis
METAR-TAF:

METAR-TAF

Oro uostai :

Nakashibetsu, Japonija

platuma: 43-34N, ilguma: 144-58E, Aukštis: 66 m

Dabartinis oras

Ataskaita buvo paskelbta 2 valandos ir 8 minutes, ne 09:00 UTC
Vėjas 8 kt iš Pietvakarių
Temperatūra 6°C
Drėgmė 61%
Slėgis 1020 hPa
Matomumas 10 km arba daugiau
nėra debesų žemiau 1500 m ir nėra kamuolinių lietaus debesų

METAR: RJCN 310900Z 23008KT CAVOK 06/M01 Q1020

Laikas: 20:08 (11:08 UTC)


TAF: trūkstamas

Orai ataskaitas ir orų prognozės (METAR, TAF).

turimą stotys yra geltonos ir raudonos taškus žemėlapyje.

Perkelti pele per norėdami pamatyti stoties vardą.

Tada spustelėkite, norėdami matyti oro stebėjimo ir prognozės.

Norėdami pakeisti žemėlapį: spustelėkite ant žalios mygtukų su juodo kryžiaus žemyn,; žalią mygtuką su brūkšneliu, jei norite nutolinti; arba žalių rodyklių gretimoms žemėlapius.


METAR-TAF: